sensor_id;sensor_type;location;lat;lon;timestamp;temperature;humidity
29413;DHT22;16389;50.126;8.450;2023-02-10T00:00:05;-2.10;99.90
29413;DHT22;16389;50.126;8.450;2023-02-10T00:02:30;-2.10;99.90
29413;DHT22;16389;50.126;8.450;2023-02-10T00:04:56;-2.10;99.90
29413;DHT22;16389;50.126;8.450;2023-02-10T00:07:21;-2.10;99.90
29413;DHT22;16389;50.126;8.450;2023-02-10T00:09:48;-2.20;99.90
29413;DHT22;16389;50.126;8.450;2023-02-10T00:12:15;-2.20;99.90
29413;DHT22;16389;50.126;8.450;2023-02-10T00:14:40;-2.30;99.90
29413;DHT22;16389;50.126;8.450;2023-02-10T00:17:06;-2.30;99.90
29413;DHT22;16389;50.126;8.450;2023-02-10T00:19:32;-2.40;99.90
29413;DHT22;16389;50.126;8.450;2023-02-10T00:21:59;-2.50;99.90
29413;DHT22;16389;50.126;8.450;2023-02-10T00:24:26;-2.60;99.90
29413;DHT22;16389;50.126;8.450;2023-02-10T00:26:51;-2.70;99.90
29413;DHT22;16389;50.126;8.450;2023-02-10T00:29:17;-2.80;99.90
29413;DHT22;16389;50.126;8.450;2023-02-10T00:31:43;-2.80;99.90
29413;DHT22;16389;50.126;8.450;2023-02-10T00:34:14;-2.80;99.90
29413;DHT22;16389;50.126;8.450;2023-02-10T00:36:41;-2.80;99.90
29413;DHT22;16389;50.126;8.450;2023-02-10T00:39:06;-2.80;99.90
29413;DHT22;16389;50.126;8.450;2023-02-10T00:41:32;-2.80;99.90
29413;DHT22;16389;50.126;8.450;2023-02-10T00:43:58;-2.80;99.90
29413;DHT22;16389;50.126;8.450;2023-02-10T00:46:23;-2.70;99.90
29413;DHT22;16389;50.126;8.450;2023-02-10T00:48:49;-2.70;99.90
29413;DHT22;16389;50.126;8.450;2023-02-10T00:51:16;-2.60;99.90
29413;DHT22;16389;50.126;8.450;2023-02-10T00:53:42;-2.50;99.90
29413;DHT22;16389;50.126;8.450;2023-02-10T00:56:09;-2.60;99.90
29413;DHT22;16389;50.126;8.450;2023-02-10T00:58:34;-2.60;99.90
29413;DHT22;16389;50.126;8.450;2023-02-10T01:01:00;-2.60;99.90
29413;DHT22;16389;50.126;8.450;2023-02-10T01:03:26;-2.60;99.90
29413;DHT22;16389;50.126;8.450;2023-02-10T01:05:51;-2.60;99.90
29413;DHT22;16389;50.126;8.450;2023-02-10T01:08:17;-2.70;99.90
29413;DHT22;16389;50.126;8.450;2023-02-10T01:10:43;-2.70;99.90
29413;DHT22;16389;50.126;8.450;2023-02-10T01:13:11;-2.70;99.90
29413;DHT22;16389;50.126;8.450;2023-02-10T01:15:42;-2.70;99.90
29413;DHT22;16389;50.126;8.450;2023-02-10T01:18:07;-2.70;99.90
29413;DHT22;16389;50.126;8.450;2023-02-10T01:20:33;-2.70;99.90
29413;DHT22;16389;50.126;8.450;2023-02-10T01:22:59;-2.80;99.90
29413;DHT22;16389;50.126;8.450;2023-02-10T01:25:24;-2.90;99.90
29413;DHT22;16389;50.126;8.450;2023-02-10T01:27:50;-2.90;99.90
29413;DHT22;16389;50.126;8.450;2023-02-10T01:30:15;-2.90;99.90
29413;DHT22;16389;50.126;8.450;2023-02-10T01:32:41;-2.90;99.90
29413;DHT22;16389;50.126;8.450;2023-02-10T01:35:07;-2.90;99.90
29413;DHT22;16389;50.126;8.450;2023-02-10T01:37:33;-2.90;99.90
29413;DHT22;16389;50.126;8.450;2023-02-10T01:39:59;-2.90;99.90
29413;DHT22;16389;50.126;8.450;2023-02-10T01:42:24;-2.90;99.90
29413;DHT22;16389;50.126;8.450;2023-02-10T01:47:15;-2.80;99.90
29413;DHT22;16389;50.126;8.450;2023-02-10T01:49:46;-2.70;99.90
29413;DHT22;16389;50.126;8.450;2023-02-10T01:52:17;-2.60;99.90
29413;DHT22;16389;50.126;8.450;2023-02-10T01:55:05;-2.50;99.90
29413;DHT22;16389;50.126;8.450;2023-02-10T01:57:32;-2.40;99.90
29413;DHT22;16389;50.126;8.450;2023-02-10T02:00:01;-2.30;99.90
29413;DHT22;16389;50.126;8.450;2023-02-10T02:02:28;-2.20;99.90
29413;DHT22;16389;50.126;8.450;2023-02-10T02:04:59;-2.10;99.90
29413;DHT22;16389;50.126;8.450;2023-02-10T02:07:28;-2.00;99.90
29413;DHT22;16389;50.126;8.450;2023-02-10T02:09:56;-1.90;99.90
29413;DHT22;16389;50.126;8.450;2023-02-10T02:14:55;-1.70;99.90
29413;DHT22;16389;50.126;8.450;2023-02-10T02:20:54;-1.60;99.90
29413;DHT22;16389;50.126;8.450;2023-02-10T02:23:45;-1.50;99.90
29413;DHT22;16389;50.126;8.450;2023-02-10T02:34:39;-1.20;99.90
29413;DHT22;16389;50.126;8.450;2023-02-10T02:37:11;-1.20;99.90
29413;DHT22;16389;50.126;8.450;2023-02-10T02:39:41;-1.10;99.90
29413;DHT22;16389;50.126;8.450;2023-02-10T02:42:26;-0.90;99.90
29413;DHT22;16389;50.126;8.450;2023-02-10T02:50:35;-0.30;99.90
29413;DHT22;16389;50.126;8.450;2023-02-10T02:53:26;-0.20;99.90
29413;DHT22;16389;50.126;8.450;2023-02-10T02:58:44;-0.10;99.90
29413;DHT22;16389;50.126;8.450;2023-02-10T03:01:26;-0.10;99.90
29413;DHT22;16389;50.126;8.450;2023-02-10T03:03:56;-0.10;99.90
29413;DHT22;16389;50.126;8.450;2023-02-10T03:06:22;-0.20;99.90
29413;DHT22;16389;50.126;8.450;2023-02-10T03:08:48;-0.20;99.90
29413;DHT22;16389;50.126;8.450;2023-02-10T03:11:13;-0.20;99.90
29413;DHT22;16389;50.126;8.450;2023-02-10T03:13:39;-0.20;99.90
29413;DHT22;16389;50.126;8.450;2023-02-10T03:16:05;-0.20;99.90
29413;DHT22;16389;50.126;8.450;2023-02-10T03:18:31;-0.20;99.90
29413;DHT22;16389;50.126;8.450;2023-02-10T03:20:56;-0.20;99.90
29413;DHT22;16389;50.126;8.450;2023-02-10T03:23:22;-0.20;99.90
29413;DHT22;16389;50.126;8.450;2023-02-10T03:25:47;-0.20;99.90
29413;DHT22;16389;50.126;8.450;2023-02-10T03:28:13;-0.20;99.90
29413;DHT22;16389;50.126;8.450;2023-02-10T03:30:39;-0.20;99.90
29413;DHT22;16389;50.126;8.450;2023-02-10T03:33:07;-0.20;99.90
29413;DHT22;16389;50.126;8.450;2023-02-10T03:35:35;-0.20;99.90
29413;DHT22;16389;50.126;8.450;2023-02-10T03:38:01;-0.20;99.90
29413;DHT22;16389;50.126;8.450;2023-02-10T03:40:26;-0.20;99.90
29413;DHT22;16389;50.126;8.450;2023-02-10T03:42:52;-0.20;99.90
29413;DHT22;16389;50.126;8.450;2023-02-10T03:45:18;-0.30;99.90
29413;DHT22;16389;50.126;8.450;2023-02-10T03:47:43;-0.40;99.90
29413;DHT22;16389;50.126;8.450;2023-02-10T03:50:09;-0.40;99.90
29413;DHT22;16389;50.126;8.450;2023-02-10T03:52:34;-0.40;99.90
29413;DHT22;16389;50.126;8.450;2023-02-10T03:55:00;-0.50;99.90
29413;DHT22;16389;50.126;8.450;2023-02-10T03:57:26;-0.60;99.90
29413;DHT22;16389;50.126;8.450;2023-02-10T03:59:51;-0.50;99.90
29413;DHT22;16389;50.126;8.450;2023-02-10T04:02:17;-0.60;99.90
29413;DHT22;16389;50.126;8.450;2023-02-10T04:04:43;-0.60;99.90
29413;DHT22;16389;50.126;8.450;2023-02-10T04:07:08;-0.60;99.90
29413;DHT22;16389;50.126;8.450;2023-02-10T04:09:34;-0.70;99.90
29413;DHT22;16389;50.126;8.450;2023-02-10T04:12:00;-0.70;99.90
29413;DHT22;16389;50.126;8.450;2023-02-10T04:14:25;-0.80;99.90
29413;DHT22;16389;50.126;8.450;2023-02-10T04:16:51;-0.80;99.90
29413;DHT22;16389;50.126;8.450;2023-02-10T04:19:16;-0.80;99.90
29413;DHT22;16389;50.126;8.450;2023-02-10T04:21:43;-0.80;99.90
29413;DHT22;16389;50.126;8.450;2023-02-10T04:24:08;-0.70;99.90
29413;DHT22;16389;50.126;8.450;2023-02-10T04:26:34;-0.70;99.90
29413;DHT22;16389;50.126;8.450;2023-02-10T04:29:00;-0.60;99.90
29413;DHT22;16389;50.126;8.450;2023-02-10T04:31:25;-0.60;99.90
29413;DHT22;16389;50.126;8.450;2023-02-10T04:33:51;-0.50;99.90
29413;DHT22;16389;50.126;8.450;2023-02-10T04:36:16;-0.40;99.90
29413;DHT22;16389;50.126;8.450;2023-02-10T04:38:42;-0.40;99.90
29413;DHT22;16389;50.126;8.450;2023-02-10T04:41:08;-0.30;99.90
29413;DHT22;16389;50.126;8.450;2023-02-10T04:43:33;-0.30;99.90
29413;DHT22;16389;50.126;8.450;2023-02-10T04:45:59;-0.20;99.90
29413;DHT22;16389;50.126;8.450;2023-02-10T04:48:25;-0.20;99.90
29413;DHT22;16389;50.126;8.450;2023-02-10T04:50:51;-0.20;99.90
29413;DHT22;16389;50.126;8.450;2023-02-10T04:53:17;-0.20;99.90
29413;DHT22;16389;50.126;8.450;2023-02-10T04:55:43;-0.10;99.90
29413;DHT22;16389;50.126;8.450;2023-02-10T04:58:08;-0.10;99.90
29413;DHT22;16389;50.126;8.450;2023-02-10T05:00:34;0.00;99.90
29413;DHT22;16389;50.126;8.450;2023-02-10T05:02:59;0.00;99.90
29413;DHT22;16389;50.126;8.450;2023-02-10T05:05:25;0.10;99.90
29413;DHT22;16389;50.126;8.450;2023-02-10T05:07:51;0.10;99.90
29413;DHT22;16389;50.126;8.450;2023-02-10T05:10:17;0.10;99.90
29413;DHT22;16389;50.126;8.450;2023-02-10T05:12:43;0.10;99.90
29413;DHT22;16389;50.126;8.450;2023-02-10T05:15:09;0.10;99.90
29413;DHT22;16389;50.126;8.450;2023-02-10T05:17:35;0.10;99.90
29413;DHT22;16389;50.126;8.450;2023-02-10T05:20:00;0.10;99.90
29413;DHT22;16389;50.126;8.450;2023-02-10T05:22:27;0.20;99.90
29413;DHT22;16389;50.126;8.450;2023-02-10T05:24:56;0.30;99.90
29413;DHT22;16389;50.126;8.450;2023-02-10T05:27:25;0.30;99.90
29413;DHT22;16389;50.126;8.450;2023-02-10T05:29:51;0.30;99.90
29413;DHT22;16389;50.126;8.450;2023-02-10T05:32:16;0.30;99.90
29413;DHT22;16389;50.126;8.450;2023-02-10T05:34:42;0.40;99.90
29413;DHT22;16389;50.126;8.450;2023-02-10T05:37:08;0.40;99.90
29413;DHT22;16389;50.126;8.450;2023-02-10T05:39:33;0.40;99.90
29413;DHT22;16389;50.126;8.450;2023-02-10T05:41:59;0.40;99.90
29413;DHT22;16389;50.126;8.450;2023-02-10T05:44:26;0.40;99.90
29413;DHT22;16389;50.126;8.450;2023-02-10T05:46:52;0.40;99.90
29413;DHT22;16389;50.126;8.450;2023-02-10T05:49:18;0.40;99.90
29413;DHT22;16389;50.126;8.450;2023-02-10T05:51:44;0.30;99.90
29413;DHT22;16389;50.126;8.450;2023-02-10T05:54:10;0.10;99.90
29413;DHT22;16389;50.126;8.450;2023-02-10T05:56:36;0.10;99.90
29413;DHT22;16389;50.126;8.450;2023-02-10T05:59:03;0.20;99.90
29413;DHT22;16389;50.126;8.450;2023-02-10T06:01:29;0.20;99.90
29413;DHT22;16389;50.126;8.450;2023-02-10T06:03:54;0.20;99.90
29413;DHT22;16389;50.126;8.450;2023-02-10T06:06:20;0.20;99.90
29413;DHT22;16389;50.126;8.450;2023-02-10T06:08:46;0.20;99.90
29413;DHT22;16389;50.126;8.450;2023-02-10T06:11:11;0.20;99.90
29413;DHT22;16389;50.126;8.450;2023-02-10T06:13:37;0.20;99.90
29413;DHT22;16389;50.126;8.450;2023-02-10T06:16:03;0.20;99.90
29413;DHT22;16389;50.126;8.450;2023-02-10T06:18:30;0.20;99.90
29413;DHT22;16389;50.126;8.450;2023-02-10T06:20:55;0.20;99.90
29413;DHT22;16389;50.126;8.450;2023-02-10T06:23:22;0.20;99.90
29413;DHT22;16389;50.126;8.450;2023-02-10T06:25:48;0.20;99.90
29413;DHT22;16389;50.126;8.450;2023-02-10T06:28:14;0.10;99.90
29413;DHT22;16389;50.126;8.450;2023-02-10T06:30:40;0.00;99.90
29413;DHT22;16389;50.126;8.450;2023-02-10T06:33:06;0.10;99.90
29413;DHT22;16389;50.126;8.450;2023-02-10T06:35:32;0.10;99.90
29413;DHT22;16389;50.126;8.450;2023-02-10T06:37:58;0.00;99.90
29413;DHT22;16389;50.126;8.450;2023-02-10T06:40:23;0.00;99.90
29413;DHT22;16389;50.126;8.450;2023-02-10T06:42:50;0.00;99.90
29413;DHT22;16389;50.126;8.450;2023-02-10T06:45:15;0.10;99.90
29413;DHT22;16389;50.126;8.450;2023-02-10T06:47:41;0.10;99.90
29413;DHT22;16389;50.126;8.450;2023-02-10T06:50:07;0.10;99.90
29413;DHT22;16389;50.126;8.450;2023-02-10T06:52:34;0.20;99.90
29413;DHT22;16389;50.126;8.450;2023-02-10T06:55:04;0.20;99.90
29413;DHT22;16389;50.126;8.450;2023-02-10T06:57:29;0.20;99.90
29413;DHT22;16389;50.126;8.450;2023-02-10T06:59:55;0.20;99.90
29413;DHT22;16389;50.126;8.450;2023-02-10T07:02:21;0.20;99.90
29413;DHT22;16389;50.126;8.450;2023-02-10T07:04:46;0.20;99.90
29413;DHT22;16389;50.126;8.450;2023-02-10T07:07:12;0.30;99.90
29413;DHT22;16389;50.126;8.450;2023-02-10T07:09:37;0.20;99.90
29413;DHT22;16389;50.126;8.450;2023-02-10T07:12:03;0.20;99.90
29413;DHT22;16389;50.126;8.450;2023-02-10T07:14:29;0.20;99.90
29413;DHT22;16389;50.126;8.450;2023-02-10T07:16:54;0.20;99.90
29413;DHT22;16389;50.126;8.450;2023-02-10T07:19:20;0.30;99.90
29413;DHT22;16389;50.126;8.450;2023-02-10T07:21:46;0.30;99.90
29413;DHT22;16389;50.126;8.450;2023-02-10T07:24:11;0.20;99.90
29413;DHT22;16389;50.126;8.450;2023-02-10T07:26:37;0.20;99.90
29413;DHT22;16389;50.126;8.450;2023-02-10T07:29:02;0.20;99.90
29413;DHT22;16389;50.126;8.450;2023-02-10T07:31:28;0.30;99.90
29413;DHT22;16389;50.126;8.450;2023-02-10T07:33:54;0.40;99.90
29413;DHT22;16389;50.126;8.450;2023-02-10T07:36:19;0.40;99.90
29413;DHT22;16389;50.126;8.450;2023-02-10T07:38:45;0.50;99.90
29413;DHT22;16389;50.126;8.450;2023-02-10T07:41:11;0.50;99.90
29413;DHT22;16389;50.126;8.450;2023-02-10T07:43:36;0.60;99.90
29413;DHT22;16389;50.126;8.450;2023-02-10T07:46:02;0.70;99.90
29413;DHT22;16389;50.126;8.450;2023-02-10T07:48:28;0.70;99.90
29413;DHT22;16389;50.126;8.450;2023-02-10T07:50:53;0.70;99.90
29413;DHT22;16389;50.126;8.450;2023-02-10T07:53:20;0.60;99.90
29413;DHT22;16389;50.126;8.450;2023-02-10T07:55:46;0.60;99.90
29413;DHT22;16389;50.126;8.450;2023-02-10T07:58:12;0.50;99.90
29413;DHT22;16389;50.126;8.450;2023-02-10T08:00:38;0.60;99.90
29413;DHT22;16389;50.126;8.450;2023-02-10T08:03:04;0.60;99.90
29413;DHT22;16389;50.126;8.450;2023-02-10T08:05:30;0.70;99.90
29413;DHT22;16389;50.126;8.450;2023-02-10T08:07:55;0.80;99.90
29413;DHT22;16389;50.126;8.450;2023-02-10T08:10:22;0.90;99.90
29413;DHT22;16389;50.126;8.450;2023-02-10T08:12:47;1.00;99.90
29413;DHT22;16389;50.126;8.450;2023-02-10T08:15:13;1.10;99.90
29413;DHT22;16389;50.126;8.450;2023-02-10T08:17:43;1.20;99.90
29413;DHT22;16389;50.126;8.450;2023-02-10T08:20:09;1.30;99.90
29413;DHT22;16389;50.126;8.450;2023-02-10T08:22:35;1.40;99.90
29413;DHT22;16389;50.126;8.450;2023-02-10T08:25:01;1.50;99.90
29413;DHT22;16389;50.126;8.450;2023-02-10T08:27:26;1.50;99.90
29413;DHT22;16389;50.126;8.450;2023-02-10T08:29:54;1.50;99.90
29413;DHT22;16389;50.126;8.450;2023-02-10T08:32:20;1.50;99.90
29413;DHT22;16389;50.126;8.450;2023-02-10T08:34:47;1.50;99.90
29413;DHT22;16389;50.126;8.450;2023-02-10T08:37:13;1.50;99.90
29413;DHT22;16389;50.126;8.450;2023-02-10T08:39:39;1.60;99.90
29413;DHT22;16389;50.126;8.450;2023-02-10T08:42:04;1.70;99.90
29413;DHT22;16389;50.126;8.450;2023-02-10T08:44:30;1.80;99.90
29413;DHT22;16389;50.126;8.450;2023-02-10T08:46:55;2.00;99.90
29413;DHT22;16389;50.126;8.450;2023-02-10T08:49:21;2.10;99.90
29413;DHT22;16389;50.126;8.450;2023-02-10T08:51:53;2.20;99.90
29413;DHT22;16389;50.126;8.450;2023-02-10T08:54:19;2.30;99.90
29413;DHT22;16389;50.126;8.450;2023-02-10T08:56:45;2.30;99.90
29413;DHT22;16389;50.126;8.450;2023-02-10T08:59:11;2.40;99.90
29413;DHT22;16389;50.126;8.450;2023-02-10T09:01:37;2.40;99.90
29413;DHT22;16389;50.126;8.450;2023-02-10T09:04:03;2.50;99.90
29413;DHT22;16389;50.126;8.450;2023-02-10T09:06:35;2.60;99.90
29413;DHT22;16389;50.126;8.450;2023-02-10T09:09:07;2.60;99.90
29413;DHT22;16389;50.126;8.450;2023-02-10T09:11:32;2.70;99.90
29413;DHT22;16389;50.126;8.450;2023-02-10T09:13:58;2.70;99.90
29413;DHT22;16389;50.126;8.450;2023-02-10T09:16:24;2.70;99.90
29413;DHT22;16389;50.126;8.450;2023-02-10T09:18:50;2.60;99.90
29413;DHT22;16389;50.126;8.450;2023-02-10T09:21:16;2.50;99.90
29413;DHT22;16389;50.126;8.450;2023-02-10T09:23:42;2.60;99.90
29413;DHT22;16389;50.126;8.450;2023-02-10T09:26:08;2.60;99.90
29413;DHT22;16389;50.126;8.450;2023-02-10T09:28:34;2.60;99.90
29413;DHT22;16389;50.126;8.450;2023-02-10T09:31:00;2.60;99.90
29413;DHT22;16389;50.126;8.450;2023-02-10T09:33:25;2.70;99.90
29413;DHT22;16389;50.126;8.450;2023-02-10T09:35:51;2.80;99.90
29413;DHT22;16389;50.126;8.450;2023-02-10T09:38:16;2.90;99.90
29413;DHT22;16389;50.126;8.450;2023-02-10T09:52:29;3.30;99.90
29413;DHT22;16389;50.126;8.450;2023-02-10T09:54:35;3.50;99.90
29413;DHT22;16389;50.126;8.450;2023-02-10T09:57:13;3.70;99.90
29413;DHT22;16389;50.126;8.450;2023-02-10T09:59:41;3.90;99.90
29413;DHT22;16389;50.126;8.450;2023-02-10T10:04:59;3.90;99.90
29413;DHT22;16389;50.126;8.450;2023-02-10T10:07:35;4.00;99.90
29413;DHT22;16389;50.126;8.450;2023-02-10T10:10:04;4.10;99.90
29413;DHT22;16389;50.126;8.450;2023-02-10T10:12:33;4.00;99.90
29413;DHT22;16389;50.126;8.450;2023-02-10T10:14:58;4.00;99.90
29413;DHT22;16389;50.126;8.450;2023-02-10T10:20:40;4.20;99.90
29413;DHT22;16389;50.126;8.450;2023-02-10T10:31:43;4.40;99.90
29413;DHT22;16389;50.126;8.450;2023-02-10T10:34:16;4.30;99.90
29413;DHT22;16389;50.126;8.450;2023-02-10T10:36:55;4.40;99.90
29413;DHT22;16389;50.126;8.450;2023-02-10T10:39:34;4.50;99.90
29413;DHT22;16389;50.126;8.450;2023-02-10T10:45:06;4.50;99.90
29413;DHT22;16389;50.126;8.450;2023-02-10T10:47:47;4.50;99.90
29413;DHT22;16389;50.126;8.450;2023-02-10T10:50:18;4.40;99.90
29413;DHT22;16389;50.126;8.450;2023-02-10T10:52:46;4.40;99.90
29413;DHT22;16389;50.126;8.450;2023-02-10T10:55:22;4.50;99.90
29413;DHT22;16389;50.126;8.450;2023-02-10T10:57:51;4.50;99.90
29413;DHT22;16389;50.126;8.450;2023-02-10T11:00:25;4.50;99.90
29413;DHT22;16389;50.126;8.450;2023-02-10T11:03:02;4.50;99.90
29413;DHT22;16389;50.126;8.450;2023-02-10T11:05:33;4.50;99.90
29413;DHT22;16389;50.126;8.450;2023-02-10T11:08:01;4.60;99.90
29413;DHT22;16389;50.126;8.450;2023-02-10T11:10:55;4.40;99.90
29413;DHT22;16389;50.126;8.450;2023-02-10T11:13:24;4.50;99.90
29413;DHT22;16389;50.126;8.450;2023-02-10T11:16:11;4.50;99.90
29413;DHT22;16389;50.126;8.450;2023-02-10T11:18:38;4.50;99.90
29413;DHT22;16389;50.126;8.450;2023-02-10T11:21:09;4.50;99.90
29413;DHT22;16389;50.126;8.450;2023-02-10T11:23:47;4.50;99.90
29413;DHT22;16389;50.126;8.450;2023-02-10T11:26:24;4.60;99.90
29413;DHT22;16389;50.126;8.450;2023-02-10T11:28:51;4.60;99.90
29413;DHT22;16389;50.126;8.450;2023-02-10T11:31:31;4.70;99.90
29413;DHT22;16389;50.126;8.450;2023-02-10T11:34:21;4.90;99.90
29413;DHT22;16389;50.126;8.450;2023-02-10T11:36:49;5.20;99.90
29413;DHT22;16389;50.126;8.450;2023-02-10T11:41:48;5.80;99.90
29413;DHT22;16389;50.126;8.450;2023-02-10T11:46:58;6.10;99.90
29413;DHT22;16389;50.126;8.450;2023-02-10T11:49:24;6.20;99.90
29413;DHT22;16389;50.126;8.450;2023-02-10T11:51:54;6.30;99.90
29413;DHT22;16389;50.126;8.450;2023-02-10T11:54:21;6.10;99.90
29413;DHT22;16389;50.126;8.450;2023-02-10T12:08:17;6.60;99.90
29413;DHT22;16389;50.126;8.450;2023-02-10T12:10:50;6.80;99.90
29413;DHT22;16389;50.126;8.450;2023-02-10T12:18:52;7.00;99.90
29413;DHT22;16389;50.126;8.450;2023-02-10T12:21:35;7.00;99.90
29413;DHT22;16389;50.126;8.450;2023-02-10T12:27:05;7.00;99.90
29413;DHT22;16389;50.126;8.450;2023-02-10T12:29:55;6.80;99.90
29413;DHT22;16389;50.126;8.450;2023-02-10T12:32:51;6.90;99.90
29413;DHT22;16389;50.126;8.450;2023-02-10T12:46:22;6.70;99.90
29413;DHT22;16389;50.126;8.450;2023-02-10T12:49:11;6.80;99.90
29413;DHT22;16389;50.126;8.450;2023-02-10T12:52:14;6.90;99.90
29413;DHT22;16389;50.126;8.450;2023-02-10T12:54:50;7.10;99.90
29413;DHT22;16389;50.126;8.450;2023-02-10T12:57:46;7.00;99.90
29413;DHT22;16389;50.126;8.450;2023-02-10T13:02:43;6.90;99.90
29413;DHT22;16389;50.126;8.450;2023-02-10T13:05:16;6.80;99.90
29413;DHT22;16389;50.126;8.450;2023-02-10T13:08:11;6.60;99.90
29413;DHT22;16389;50.126;8.450;2023-02-10T13:10:43;6.50;99.90
29413;DHT22;16389;50.126;8.450;2023-02-10T13:13:31;6.20;99.90
29413;DHT22;16389;50.126;8.450;2023-02-10T13:16:10;5.80;99.90
29413;DHT22;16389;50.126;8.450;2023-02-10T13:19:04;5.60;99.90
29413;DHT22;16389;50.126;8.450;2023-02-10T13:21:43;5.50;99.90
29413;DHT22;16389;50.126;8.450;2023-02-10T13:24:20;5.40;99.90
29413;DHT22;16389;50.126;8.450;2023-02-10T13:32:33;5.50;99.90
29413;DHT22;16389;50.126;8.450;2023-02-10T13:35:07;5.60;99.90
29413;DHT22;16389;50.126;8.450;2023-02-10T13:37:46;5.60;99.90
29413;DHT22;16389;50.126;8.450;2023-02-10T13:45:21;5.70;99.90
29413;DHT22;16389;50.126;8.450;2023-02-10T13:47:53;5.70;99.90
29413;DHT22;16389;50.126;8.450;2023-02-10T13:55:45;6.00;99.90
29413;DHT22;16389;50.126;8.450;2023-02-10T14:05:37;6.50;99.90
29413;DHT22;16389;50.126;8.450;2023-02-10T14:08:14;6.50;99.90
29413;DHT22;16389;50.126;8.450;2023-02-10T14:10:40;6.50;99.90
29413;DHT22;16389;50.126;8.450;2023-02-10T14:13:24;6.40;99.90
29413;DHT22;16389;50.126;8.450;2023-02-10T14:18:44;6.20;99.90
29413;DHT22;16389;50.126;8.450;2023-02-10T14:21:14;6.10;99.90
29413;DHT22;16389;50.126;8.450;2023-02-10T14:23:49;6.00;99.90
29413;DHT22;16389;50.126;8.450;2023-02-10T14:26:19;5.90;99.90
29413;DHT22;16389;50.126;8.450;2023-02-10T14:28:49;5.80;99.90
29413;DHT22;16389;50.126;8.450;2023-02-10T14:31:26;5.70;99.90
29413;DHT22;16389;50.126;8.450;2023-02-10T14:34:00;5.70;99.90
29413;DHT22;16389;50.126;8.450;2023-02-10T14:36:27;5.70;99.90
29413;DHT22;16389;50.126;8.450;2023-02-10T14:38:55;5.70;99.90
29413;DHT22;16389;50.126;8.450;2023-02-10T14:41:22;5.60;99.90
29413;DHT22;16389;50.126;8.450;2023-02-10T14:43:49;5.60;99.90
29413;DHT22;16389;50.126;8.450;2023-02-10T14:46:22;5.70;99.90
29413;DHT22;16389;50.126;8.450;2023-02-10T14:48:48;5.60;99.90
29413;DHT22;16389;50.126;8.450;2023-02-10T14:51:23;5.60;99.90
29413;DHT22;16389;50.126;8.450;2023-02-10T14:53:49;5.70;99.90
29413;DHT22;16389;50.126;8.450;2023-02-10T14:56:22;5.80;99.90
29413;DHT22;16389;50.126;8.450;2023-02-10T14:58:48;5.90;99.90
29413;DHT22;16389;50.126;8.450;2023-02-10T15:03:48;6.40;99.90
29413;DHT22;16389;50.126;8.450;2023-02-10T15:06:22;6.70;99.90
29413;DHT22;16389;50.126;8.450;2023-02-10T15:09:07;6.90;99.90
29413;DHT22;16389;50.126;8.450;2023-02-10T15:11:40;7.00;99.90
29413;DHT22;16389;50.126;8.450;2023-02-10T15:14:30;6.90;99.90
29413;DHT22;16389;50.126;8.450;2023-02-10T15:17:00;6.70;99.90
29413;DHT22;16389;50.126;8.450;2023-02-10T15:19:27;6.70;99.90
29413;DHT22;16389;50.126;8.450;2023-02-10T15:21:53;6.50;99.90
29413;DHT22;16389;50.126;8.450;2023-02-10T15:24:20;6.30;99.90
29413;DHT22;16389;50.126;8.450;2023-02-10T15:26:46;6.20;99.90
29413;DHT22;16389;50.126;8.450;2023-02-10T15:29:14;6.10;99.90
29413;DHT22;16389;50.126;8.450;2023-02-10T15:31:41;6.00;99.90
29413;DHT22;16389;50.126;8.450;2023-02-10T15:34:20;5.90;99.90
29413;DHT22;16389;50.126;8.450;2023-02-10T15:37:03;5.70;99.90
29413;DHT22;16389;50.126;8.450;2023-02-10T15:39:37;5.60;99.90
29413;DHT22;16389;50.126;8.450;2023-02-10T15:44:39;5.40;99.90
29413;DHT22;16389;50.126;8.450;2023-02-10T15:47:23;5.20;99.90
29413;DHT22;16389;50.126;8.450;2023-02-10T15:49:57;5.00;99.90
29413;DHT22;16389;50.126;8.450;2023-02-10T15:52:33;4.90;99.90
29413;DHT22;16389;50.126;8.450;2023-02-10T15:55:06;4.70;99.90
29413;DHT22;16389;50.126;8.450;2023-02-10T15:57:35;4.70;99.90
29413;DHT22;16389;50.126;8.450;2023-02-10T16:00:01;4.70;99.90
29413;DHT22;16389;50.126;8.450;2023-02-10T16:02:26;4.50;99.90
29413;DHT22;16389;50.126;8.450;2023-02-10T16:04:53;4.50;99.90
29413;DHT22;16389;50.126;8.450;2023-02-10T16:07:22;4.40;99.90
29413;DHT22;16389;50.126;8.450;2023-02-10T16:09:49;4.30;99.90
29413;DHT22;16389;50.126;8.450;2023-02-10T16:12:14;4.10;99.90
29413;DHT22;16389;50.126;8.450;2023-02-10T16:14:40;3.90;99.90
29413;DHT22;16389;50.126;8.450;2023-02-10T16:17:08;3.80;99.90
29413;DHT22;16389;50.126;8.450;2023-02-10T16:19:33;3.60;99.90
29413;DHT22;16389;50.126;8.450;2023-02-10T16:21:59;3.40;99.90
29413;DHT22;16389;50.126;8.450;2023-02-10T16:24:27;3.20;99.90
29413;DHT22;16389;50.126;8.450;2023-02-10T16:26:54;3.20;99.90
29413;DHT22;16389;50.126;8.450;2023-02-10T16:29:26;3.00;99.90
29413;DHT22;16389;50.126;8.450;2023-02-10T16:31:53;2.80;99.90
29413;DHT22;16389;50.126;8.450;2023-02-10T16:34:19;2.70;99.90
29413;DHT22;16389;50.126;8.450;2023-02-10T16:36:45;2.50;99.90
29413;DHT22;16389;50.126;8.450;2023-02-10T16:39:21;2.50;99.90
29413;DHT22;16389;50.126;8.450;2023-02-10T16:41:50;2.30;99.90
29413;DHT22;16389;50.126;8.450;2023-02-10T16:44:16;2.10;99.90
29413;DHT22;16389;50.126;8.450;2023-02-10T16:46:42;2.00;99.90
29413;DHT22;16389;50.126;8.450;2023-02-10T16:49:13;1.80;99.90
29413;DHT22;16389;50.126;8.450;2023-02-10T16:51:40;1.70;99.90
29413;DHT22;16389;50.126;8.450;2023-02-10T16:54:06;1.60;99.90
29413;DHT22;16389;50.126;8.450;2023-02-10T16:56:39;1.60;99.90
29413;DHT22;16389;50.126;8.450;2023-02-10T16:59:06;1.50;99.90
29413;DHT22;16389;50.126;8.450;2023-02-10T17:01:32;1.50;99.90
29413;DHT22;16389;50.126;8.450;2023-02-10T17:03:58;1.40;99.90
29413;DHT22;16389;50.126;8.450;2023-02-10T17:06:24;1.40;99.90
29413;DHT22;16389;50.126;8.450;2023-02-10T17:08:50;1.30;99.90
29413;DHT22;16389;50.126;8.450;2023-02-10T17:11:16;1.20;99.90
29413;DHT22;16389;50.126;8.450;2023-02-10T17:13:42;1.10;99.90
29413;DHT22;16389;50.126;8.450;2023-02-10T17:16:31;1.00;99.90
29413;DHT22;16389;50.126;8.450;2023-02-10T17:19:00;1.00;99.90
29413;DHT22;16389;50.126;8.450;2023-02-10T17:21:26;0.90;99.90
29413;DHT22;16389;50.126;8.450;2023-02-10T17:23:52;0.80;99.90
29413;DHT22;16389;50.126;8.450;2023-02-10T17:26:17;0.80;99.90
29413;DHT22;16389;50.126;8.450;2023-02-10T17:28:43;0.70;99.90
29413;DHT22;16389;50.126;8.450;2023-02-10T17:31:14;0.80;99.90
29413;DHT22;16389;50.126;8.450;2023-02-10T17:33:40;0.70;99.90
29413;DHT22;16389;50.126;8.450;2023-02-10T17:36:34;0.60;99.90
29413;DHT22;16389;50.126;8.450;2023-02-10T17:38:59;0.60;99.90
29413;DHT22;16389;50.126;8.450;2023-02-10T17:41:26;0.60;99.90
29413;DHT22;16389;50.126;8.450;2023-02-10T17:43:54;0.60;99.90
29413;DHT22;16389;50.126;8.450;2023-02-10T17:46:21;0.50;99.90
29413;DHT22;16389;50.126;8.450;2023-02-10T17:48:47;0.50;99.90
29413;DHT22;16389;50.126;8.450;2023-02-10T17:51:16;0.40;99.90
29413;DHT22;16389;50.126;8.450;2023-02-10T17:53:42;0.40;99.90
29413;DHT22;16389;50.126;8.450;2023-02-10T17:56:08;0.30;99.90